createdAt,value
2018-05-26T00:00:26.007Z,13.80
2018-05-26T00:02:54.099Z,13.70
2018-05-26T00:05:22.201Z,13.70
2018-05-26T00:07:50.319Z,13.70
2018-05-26T00:10:18.399Z,13.70
2018-05-26T00:12:46.513Z,13.70
2018-05-26T00:15:14.633Z,13.70
2018-05-26T00:17:42.780Z,13.70
2018-05-26T00:20:10.869Z,13.60
2018-05-26T00:22:38.986Z,13.60
2018-05-26T00:25:07.118Z,13.60
2018-05-26T00:27:35.222Z,13.50
2018-05-26T00:30:03.438Z,13.50
2018-05-26T00:32:31.664Z,13.50
2018-05-26T00:34:59.916Z,13.40
2018-05-26T00:37:28.070Z,13.40
2018-05-26T00:39:56.974Z,13.40
2018-05-26T00:42:25.080Z,13.40
2018-05-26T00:44:53.210Z,13.40
2018-05-26T00:47:21.428Z,13.30
2018-05-26T00:49:49.540Z,13.30
2018-05-26T00:52:17.696Z,13.30
2018-05-26T00:54:45.860Z,13.30
2018-05-26T00:57:14.062Z,13.30
2018-05-26T00:59:42.178Z,13.20
2018-05-26T01:02:10.277Z,13.20
2018-05-26T01:04:38.389Z,13.20
2018-05-26T01:07:06.513Z,13.20
2018-05-26T01:09:34.618Z,13.20
2018-05-26T01:12:02.731Z,13.20
2018-05-26T01:14:30.826Z,13.10
2018-05-26T01:16:58.970Z,13.10
2018-05-26T01:19:27.080Z,13.10
2018-05-26T01:21:55.919Z,13.00
2018-05-26T01:24:24.010Z,13.00
2018-05-26T01:26:52.143Z,13.00
2018-05-26T01:29:20.383Z,12.90
2018-05-26T01:31:48.545Z,12.90
2018-05-26T01:34:16.662Z,12.90
2018-05-26T01:36:44.769Z,12.90
2018-05-26T01:39:13.263Z,12.90
2018-05-26T01:41:41.369Z,12.90
2018-05-26T01:44:09.511Z,12.80
2018-05-26T01:46:37.769Z,12.80
2018-05-26T01:49:05.937Z,12.80
2018-05-26T01:51:34.032Z,12.70
2018-05-26T01:54:02.151Z,12.70
2018-05-26T01:56:30.254Z,12.70
2018-05-26T01:58:58.796Z,12.70
2018-05-26T02:01:26.931Z,12.70
2018-05-26T02:03:55.032Z,12.60
2018-05-26T02:06:23.143Z,12.60
2018-05-26T02:08:52.005Z,12.60
2018-05-26T02:11:20.121Z,12.60
2018-05-26T02:13:48.227Z,12.60
2018-05-26T02:16:16.340Z,12.70
2018-05-26T02:18:44.471Z,12.60
2018-05-26T02:21:12.584Z,12.60
2018-05-26T02:23:40.810Z,12.60
2018-05-26T02:26:08.938Z,12.60
2018-05-26T02:28:37.806Z,12.60
2018-05-26T02:31:05.920Z,12.60
2018-05-26T02:33:34.024Z,12.60
2018-05-26T02:36:02.112Z,12.60
2018-05-26T02:38:30.305Z,12.50
2018-05-26T02:40:58.493Z,12.50
2018-05-26T02:43:26.615Z,12.50
2018-05-26T02:45:54.729Z,12.50
2018-05-26T02:48:23.615Z,12.50
2018-05-26T02:50:51.727Z,12.40
2018-05-26T02:53:19.816Z,12.40
2018-05-26T02:55:47.947Z,12.40
2018-05-26T02:58:16.045Z,12.40
2018-05-26T03:00:44.194Z,12.30
2018-05-26T03:03:12.296Z,12.30
2018-05-26T03:05:45.899Z,12.30
2018-05-26T03:08:20.039Z,12.20
2018-05-26T03:10:53.763Z,12.20
2018-05-26T03:13:27.379Z,12.20
2018-05-26T03:19:04.029Z,12.10
2018-05-26T03:21:32.149Z,12.10
2018-05-26T03:24:00.280Z,12.00
2018-05-26T03:26:28.477Z,12.00
2018-05-26T03:28:56.645Z,12.00
2018-05-26T03:31:24.774Z,12.00
2018-05-26T03:33:52.866Z,12.00
2018-05-26T03:36:21.043Z,12.00
2018-05-26T03:38:49.133Z,11.90
2018-05-26T03:41:17.260Z,11.90
2018-05-26T03:43:45.381Z,11.90
2018-05-26T03:46:13.476Z,11.90
2018-05-26T03:48:41.590Z,11.90
2018-05-26T03:51:09.700Z,11.90
2018-05-26T03:53:37.810Z,11.90
2018-05-26T03:56:23.651Z,11.90
2018-05-26T03:59:09.548Z,11.90
2018-05-26T04:01:37.656Z,11.90
2018-05-26T04:04:05.772Z,11.90
2018-05-26T04:06:33.870Z,11.90
2018-05-26T04:09:01.997Z,12.00
2018-05-26T04:11:30.097Z,12.00
2018-05-26T04:13:58.355Z,12.00
2018-05-26T04:16:26.546Z,12.00
2018-05-26T04:18:54.800Z,12.10
2018-05-26T04:21:23.023Z,12.10
2018-05-26T04:23:51.308Z,12.10
2018-05-26T04:26:20.200Z,12.10
2018-05-26T04:28:48.363Z,12.10
2018-05-26T04:31:16.481Z,12.10
2018-05-26T04:33:44.628Z,12.10
2018-05-26T04:36:12.735Z,12.10
2018-05-26T04:38:40.836Z,12.20
2018-05-26T04:41:09.043Z,12.20
2018-05-26T04:43:37.253Z,12.20
2018-05-26T04:46:05.369Z,12.20
2018-05-26T04:48:33.477Z,12.30
2018-05-26T04:51:01.589Z,12.30
2018-05-26T04:53:29.699Z,12.30
2018-05-26T04:55:57.821Z,12.40
2018-05-26T04:58:25.951Z,12.50
2018-05-26T05:00:54.837Z,12.50
2018-05-26T05:03:22.940Z,12.60
2018-05-26T05:05:51.049Z,12.60
2018-05-26T05:08:19.152Z,12.70
2018-05-26T05:10:47.253Z,12.70
2018-05-26T05:13:15.375Z,12.80
2018-05-26T05:15:43.514Z,12.80
2018-05-26T05:18:11.744Z,12.90
2018-05-26T05:20:40.648Z,13.00
2018-05-26T05:23:08.762Z,13.10
2018-05-26T05:25:36.886Z,13.10
2018-05-26T05:28:05.023Z,13.20
2018-05-26T05:30:33.162Z,13.30
2018-05-26T05:33:01.280Z,13.30
2018-05-26T05:35:29.401Z,13.40
2018-05-26T05:37:57.516Z,13.50
2018-05-26T05:40:25.626Z,13.60
2018-05-26T05:42:53.742Z,13.70
2018-05-26T05:45:21.867Z,13.70
2018-05-26T05:47:49.996Z,13.80
2018-05-26T05:50:18.857Z,13.90
2018-05-26T05:52:46.983Z,14.00
2018-05-26T05:55:15.086Z,14.10
2018-05-26T05:57:43.209Z,14.20
2018-05-26T06:00:11.312Z,14.30
2018-05-26T06:02:39.422Z,14.30
2018-05-26T06:05:07.535Z,14.50
2018-05-26T06:07:35.664Z,14.60
2018-05-26T06:10:03.831Z,14.70
2018-05-26T06:12:31.961Z,14.80
2018-05-26T06:15:00.249Z,14.90
2018-05-26T06:17:28.360Z,15.00
2018-05-26T06:19:56.488Z,15.10
2018-05-26T06:22:24.587Z,15.30
2018-05-26T06:24:52.718Z,15.40
2018-05-26T06:27:20.839Z,15.50
2018-05-26T06:29:49.019Z,15.60
2018-05-26T06:32:17.159Z,15.70
2018-05-26T06:34:45.826Z,15.80
2018-05-26T06:37:13.942Z,15.90
2018-05-26T06:39:42.058Z,16.00
2018-05-26T06:42:10.369Z,16.10
2018-05-26T06:44:38.495Z,16.20
2018-05-26T06:47:06.635Z,16.30
2018-05-26T06:49:34.860Z,16.30
2018-05-26T06:52:03.018Z,16.40
2018-05-26T06:54:31.131Z,16.50
2018-05-26T06:56:59.856Z,16.60
2018-05-26T06:59:27.989Z,16.70
2018-05-26T07:01:56.134Z,16.80
2018-05-26T07:04:24.393Z,16.80
2018-05-26T07:06:52.599Z,16.90
2018-05-26T07:09:20.721Z,17.00
2018-05-26T07:11:48.860Z,17.10
2018-05-26T07:14:17.577Z,17.20
2018-05-26T07:16:45.691Z,17.20
2018-05-26T07:19:13.798Z,17.30
2018-05-26T07:21:41.937Z,17.30
2018-05-26T07:24:10.073Z,17.40
2018-05-26T07:26:38.193Z,17.50
2018-05-26T07:29:06.329Z,17.60
2018-05-26T07:31:34.446Z,17.70
2018-05-26T07:34:02.540Z,17.80
2018-05-26T07:36:30.695Z,17.80
2018-05-26T07:38:58.858Z,17.90
2018-05-26T07:41:27.056Z,18.00
2018-05-26T07:43:55.150Z,18.00
2018-05-26T07:46:23.741Z,18.10
2018-05-26T07:48:51.912Z,18.20
2018-05-26T07:51:20.140Z,18.30
2018-05-26T07:53:48.334Z,18.30
2018-05-26T07:56:16.444Z,18.40
2018-05-26T07:58:44.608Z,18.50
2018-05-26T08:01:13.468Z,18.60
2018-05-26T08:03:42.390Z,18.70
2018-05-26T08:06:10.567Z,18.70
2018-05-26T08:08:38.898Z,18.80
2018-05-26T08:11:07.123Z,18.90
2018-05-26T08:13:35.297Z,19.00
2018-05-26T08:16:03.553Z,19.10
2018-05-26T08:18:32.432Z,19.20
2018-05-26T08:21:01.308Z,19.30
2018-05-26T08:23:29.488Z,19.40
2018-05-26T08:25:57.599Z,19.50
2018-05-26T08:28:25.823Z,19.60
2018-05-26T08:30:53.947Z,19.70
2018-05-26T08:33:23.364Z,19.80
2018-05-26T08:35:51.594Z,19.90
2018-05-26T08:38:19.852Z,20.00
2018-05-26T08:40:47.971Z,20.00
2018-05-26T08:43:16.164Z,20.10
2018-05-26T08:45:44.444Z,20.10
2018-05-26T08:48:12.563Z,20.20
2018-05-26T08:50:41.430Z,20.20
2018-05-26T08:53:09.558Z,20.30
2018-05-26T08:55:37.659Z,20.30
2018-05-26T08:58:05.813Z,20.30
2018-05-26T09:00:33.923Z,20.40
2018-05-26T09:03:02.046Z,20.40
2018-05-26T09:05:30.244Z,20.50
2018-05-26T09:07:58.374Z,20.60
2018-05-26T09:10:26.461Z,20.70
2018-05-26T09:12:54.592Z,20.70
2018-05-26T09:15:22.715Z,20.80
2018-05-26T09:17:50.803Z,20.90
2018-05-26T09:20:19.073Z,20.90
2018-05-26T09:22:47.182Z,21.00
2018-05-26T09:25:15.457Z,21.00
2018-05-26T09:27:43.639Z,21.10
2018-05-26T09:30:11.765Z,21.20
2018-05-26T09:32:39.947Z,21.30
2018-05-26T09:35:08.057Z,21.50
2018-05-26T09:37:36.233Z,21.60
2018-05-26T09:40:04.364Z,21.70
2018-05-26T09:42:32.452Z,21.80
2018-05-26T09:45:00.606Z,22.00
2018-05-26T09:47:28.746Z,22.10
2018-05-26T09:49:56.967Z,22.20
2018-05-26T09:52:25.218Z,22.40
2018-05-26T09:54:53.770Z,22.50
2018-05-26T09:57:22.980Z,22.70
2018-05-26T09:59:51.070Z,22.80
2018-05-26T10:02:19.224Z,23.00
2018-05-26T10:04:47.338Z,23.20
2018-05-26T10:07:15.512Z,23.30
2018-05-26T10:09:43.634Z,23.50
2018-05-26T10:12:15.991Z,23.70
2018-05-26T10:14:45.350Z,23.80
2018-05-26T10:17:13.514Z,24.00
2018-05-26T10:19:41.883Z,24.10
2018-05-26T10:22:10.036Z,24.30
2018-05-26T10:24:38.224Z,24.40
2018-05-26T10:27:06.335Z,24.60
2018-05-26T10:29:34.525Z,24.70
2018-05-26T10:32:02.650Z,24.90
2018-05-26T10:34:30.772Z,25.10
2018-05-26T10:36:58.883Z,25.30
2018-05-26T10:39:27.062Z,25.40
2018-05-26T10:41:55.212Z,25.60
2018-05-26T10:44:23.335Z,25.80
2018-05-26T10:46:51.516Z,26.00
2018-05-26T10:49:19.729Z,26.10
2018-05-26T10:51:47.977Z,26.30
2018-05-26T10:54:16.079Z,26.50
2018-05-26T10:56:44.954Z,26.70
2018-05-26T10:59:13.053Z,26.90
2018-05-26T11:01:42.001Z,27.10
2018-05-26T11:04:10.165Z,27.30
2018-05-26T11:06:47.045Z,27.40
2018-05-26T11:09:15.143Z,27.60
2018-05-26T11:11:43.255Z,27.80
2018-05-26T11:14:11.400Z,28.00
2018-05-26T11:16:39.496Z,28.20
2018-05-26T11:19:07.616Z,28.30
2018-05-26T11:21:35.749Z,28.50
2018-05-26T11:24:04.561Z,28.70
2018-05-26T11:26:33.377Z,28.90
2018-05-26T11:29:01.495Z,29.20
2018-05-26T11:31:29.609Z,29.40
2018-05-26T11:33:57.806Z,29.60
2018-05-26T11:36:25.924Z,29.70
2018-05-26T11:38:54.042Z,29.90
2018-05-26T11:41:22.144Z,30.00
2018-05-26T11:43:50.275Z,30.20
2018-05-26T11:46:18.360Z,30.30
2018-05-26T11:48:46.590Z,30.40
2018-05-26T11:51:14.711Z,30.60
2018-05-26T11:53:42.975Z,30.70
2018-05-26T11:56:11.599Z,30.70
2018-05-26T11:58:39.701Z,30.80
2018-05-26T12:01:07.858Z,30.80
2018-05-26T12:03:35.955Z,30.70
2018-05-26T12:06:04.061Z,30.70
2018-05-26T12:08:32.183Z,30.70
2018-05-26T12:11:00.305Z,30.70
2018-05-26T12:13:28.413Z,30.60
2018-05-26T12:15:56.536Z,30.60
2018-05-26T12:18:24.653Z,30.60
2018-05-26T12:20:52.787Z,30.70
2018-05-26T12:23:20.903Z,31.00
2018-05-26T12:25:49.023Z,31.30
2018-05-26T12:28:17.143Z,31.60
2018-05-26T12:30:45.243Z,32.00
2018-05-26T12:33:13.355Z,32.60
2018-05-26T12:35:41.443Z,33.30
2018-05-26T12:38:09.559Z,34.20
2018-05-26T12:40:37.669Z,35.10
2018-05-26T12:43:05.777Z,36.00
2018-05-26T12:45:33.897Z,36.60
2018-05-26T12:48:01.986Z,36.90
2018-05-26T12:50:30.098Z,36.90
2018-05-26T12:52:58.204Z,36.90
2018-05-26T12:55:26.316Z,36.80
2018-05-26T12:57:54.424Z,36.70
2018-05-26T13:00:22.539Z,36.60
2018-05-26T13:02:50.644Z,36.60
2018-05-26T13:05:18.787Z,36.50
2018-05-26T13:07:46.885Z,36.30
2018-05-26T13:10:15.023Z,36.00
2018-05-26T13:12:43.135Z,35.70
2018-05-26T13:15:11.346Z,35.30
2018-05-26T13:17:39.520Z,35.00
2018-05-26T13:20:07.717Z,34.80
2018-05-26T13:22:36.020Z,34.50
2018-05-26T13:25:04.143Z,34.30
2018-05-26T13:27:32.262Z,34.10
2018-05-26T13:30:00.429Z,34.10
2018-05-26T13:32:28.511Z,34.10
2018-05-26T13:34:56.685Z,34.20
2018-05-26T13:37:24.775Z,34.40
2018-05-26T13:39:53.730Z,34.70
2018-05-26T13:42:21.943Z,35.10
2018-05-26T13:44:50.045Z,35.40
2018-05-26T13:47:18.165Z,35.70
2018-05-26T13:49:46.293Z,36.00
2018-05-26T13:52:14.404Z,36.30
2018-05-26T13:54:42.570Z,36.60
2018-05-26T13:57:10.665Z,36.90
2018-05-26T13:59:38.786Z,37.20
2018-05-26T14:02:06.943Z,37.60
2018-05-26T14:04:35.151Z,38.00
2018-05-26T14:07:03.330Z,38.40
2018-05-26T14:09:31.421Z,38.70
2018-05-26T14:11:59.615Z,39.20
2018-05-26T14:14:27.741Z,39.50
2018-05-26T14:16:55.855Z,39.70
2018-05-26T14:19:23.982Z,39.80
2018-05-26T14:21:52.118Z,39.90
2018-05-26T14:24:20.240Z,39.90
2018-05-26T14:26:48.334Z,40.10
2018-05-26T14:29:16.513Z,40.40
2018-05-26T14:31:44.649Z,40.70
2018-05-26T14:34:12.772Z,41.00
2018-05-26T14:36:40.854Z,41.40
2018-05-26T14:39:08.984Z,41.70
2018-05-26T14:41:37.134Z,42.10
2018-05-26T14:44:05.460Z,42.40
2018-05-26T14:46:33.579Z,42.80
2018-05-26T14:49:01.727Z,43.10
2018-05-26T14:51:29.854Z,43.50
2018-05-26T14:53:57.999Z,43.70
2018-05-26T14:56:26.147Z,44.00
2018-05-26T14:58:54.238Z,44.30
2018-05-26T15:01:22.331Z,44.50
2018-05-26T15:03:50.468Z,44.80
2018-05-26T15:06:18.562Z,44.90
2018-05-26T15:08:46.744Z,45.00
2018-05-26T15:11:14.900Z,45.00
2018-05-26T15:13:43.143Z,45.10
2018-05-26T15:16:11.255Z,45.20
2018-05-26T15:18:39.379Z,45.20
2018-05-26T15:21:07.521Z,45.30
2018-05-26T15:23:35.726Z,45.30
2018-05-26T15:26:04.611Z,45.30
2018-05-26T15:28:33.041Z,45.30
2018-05-26T15:31:01.165Z,45.30
2018-05-26T15:33:29.341Z,45.20
2018-05-26T15:35:57.476Z,45.10
2018-05-26T15:38:25.586Z,45.00
2018-05-26T15:40:53.706Z,45.00
2018-05-26T15:43:21.801Z,44.90
2018-05-26T15:45:49.912Z,44.80
2018-05-26T15:48:18.022Z,44.70
2018-05-26T15:50:46.126Z,44.60
2018-05-26T15:53:14.637Z,44.60
2018-05-26T15:55:43.518Z,44.50
2018-05-26T15:58:11.623Z,44.40
2018-05-26T16:00:39.721Z,44.30
2018-05-26T16:03:07.834Z,44.30
2018-05-26T16:05:35.993Z,44.20
2018-05-26T16:08:04.120Z,44.10
2018-05-26T16:10:32.225Z,43.90
2018-05-26T16:13:05.099Z,43.80
2018-05-26T16:15:34.397Z,43.60
2018-05-26T16:18:02.519Z,43.50
2018-05-26T16:20:30.665Z,43.30
2018-05-26T16:22:58.769Z,43.00
2018-05-26T16:25:26.903Z,42.70
2018-05-26T16:27:55.012Z,42.50
2018-05-26T16:30:23.921Z,42.20
2018-05-26T16:32:52.080Z,42.10
2018-05-26T16:35:20.222Z,41.80
2018-05-26T16:37:48.321Z,41.60
2018-05-26T16:40:16.442Z,41.30
2018-05-26T16:42:44.820Z,40.90
2018-05-26T16:45:12.945Z,40.50
2018-05-26T16:47:41.829Z,40.10
2018-05-26T16:50:09.909Z,39.60
2018-05-26T16:52:38.082Z,39.10
2018-05-26T16:55:06.164Z,38.70
2018-05-26T16:57:34.291Z,38.40
2018-05-26T17:00:02.472Z,38.00
2018-05-26T17:02:30.596Z,37.60
2018-05-26T17:04:58.745Z,37.20
2018-05-26T17:07:27.626Z,36.80
2018-05-26T17:09:55.731Z,36.40
2018-05-26T17:12:23.944Z,36.00
2018-05-26T17:14:52.172Z,35.60
2018-05-26T17:17:20.404Z,35.20
2018-05-26T17:19:48.683Z,34.80
2018-05-26T17:22:16.827Z,34.40
2018-05-26T17:24:45.317Z,34.00
2018-05-26T17:27:13.456Z,33.50
2018-05-26T17:29:41.624Z,33.10
2018-05-26T17:32:09.858Z,32.60
2018-05-26T17:34:37.976Z,32.20
2018-05-26T17:37:06.085Z,31.80
2018-05-26T17:39:34.975Z,31.40
2018-05-26T17:42:03.078Z,31.00
2018-05-26T17:44:31.219Z,30.60
2018-05-26T17:46:59.335Z,30.20
2018-05-26T17:49:27.464Z,29.90
2018-05-26T17:51:55.605Z,29.60
2018-05-26T17:54:23.776Z,29.20
2018-05-26T17:56:51.923Z,28.90
2018-05-26T17:59:20.623Z,28.60
2018-05-26T18:01:48.751Z,28.30
2018-05-26T18:04:16.873Z,28.00
2018-05-26T18:06:44.994Z,27.70
2018-05-26T18:09:13.146Z,27.50
2018-05-26T18:11:41.258Z,27.20
2018-05-26T18:14:09.378Z,27.00
2018-05-26T18:16:37.494Z,26.70
2018-05-26T18:19:05.688Z,26.50
2018-05-26T18:21:33.864Z,26.30
2018-05-26T18:24:02.310Z,26.10
2018-05-26T18:26:30.412Z,25.90
2018-05-26T18:28:58.623Z,25.80
2018-05-26T18:31:26.763Z,25.60
2018-05-26T18:33:55.671Z,25.40
2018-05-26T18:36:23.773Z,25.30
2018-05-26T18:38:51.890Z,25.10
2018-05-26T18:41:22.047Z,25.00
2018-05-26T18:43:50.239Z,24.80
2018-05-26T18:46:18.510Z,24.60
2018-05-26T18:48:46.681Z,24.50
2018-05-26T18:51:14.749Z,24.30
2018-05-26T18:53:44.525Z,24.10
2018-05-26T18:56:27.385Z,23.90
2018-05-26T18:58:55.477Z,23.70
2018-05-26T19:01:23.621Z,23.50
2018-05-26T19:03:51.761Z,23.40
2018-05-26T19:06:21.261Z,23.20
2018-05-26T19:08:55.913Z,23.00
2018-05-26T19:11:36.976Z,22.80
2018-05-26T19:14:05.335Z,22.60
2018-05-26T19:16:33.466Z,22.40
2018-05-26T19:19:01.572Z,22.30
2018-05-26T19:21:30.273Z,22.10
2018-05-26T19:23:59.167Z,22.00
2018-05-26T19:26:27.384Z,21.80
2018-05-26T19:28:55.577Z,21.70
2018-05-26T19:31:23.686Z,21.50
2018-05-26T19:33:51.846Z,21.40
2018-05-26T19:36:19.963Z,21.30
2018-05-26T19:38:48.479Z,21.20
2018-05-26T19:41:16.640Z,21.10
2018-05-26T19:43:44.757Z,20.90
2018-05-26T19:46:12.877Z,20.80
2018-05-26T19:48:40.992Z,20.70
2018-05-26T19:51:09.127Z,20.60
2018-05-26T19:53:37.225Z,20.40
2018-05-26T19:56:05.349Z,20.30
2018-05-26T19:58:33.514Z,20.20
2018-05-26T20:01:01.728Z,20.10
2018-05-26T20:03:29.966Z,20.00
2018-05-26T20:05:58.124Z,19.90
2018-05-26T20:08:26.207Z,19.80
2018-05-26T20:10:55.091Z,19.70
2018-05-26T20:13:23.967Z,19.60
2018-05-26T20:15:52.072Z,19.50
2018-05-26T20:18:20.197Z,19.40
2018-05-26T20:20:48.307Z,19.40
2018-05-26T20:23:16.428Z,19.30
2018-05-26T20:25:44.547Z,19.20
2018-05-26T20:28:13.519Z,19.10
2018-05-26T20:30:41.741Z,19.10
2018-05-26T20:33:09.981Z,19.00
2018-05-26T20:35:38.204Z,19.00
2018-05-26T20:38:06.421Z,18.90
2018-05-26T20:40:34.519Z,18.80
2018-05-26T20:43:02.636Z,18.80
2018-05-26T20:45:30.739Z,18.70
2018-05-26T20:47:58.856Z,18.60
2018-05-26T20:50:26.949Z,18.60
2018-05-26T20:52:55.103Z,18.50
2018-05-26T20:55:23.236Z,18.40
2018-05-26T20:57:51.338Z,18.40
2018-05-26T21:00:19.464Z,18.30
2018-05-26T21:02:47.608Z,18.20
2018-05-26T21:05:15.730Z,18.20
2018-05-26T21:07:43.819Z,18.10
2018-05-26T21:10:11.950Z,18.00
2018-05-26T21:12:40.061Z,18.00
2018-05-26T21:15:08.220Z,17.90
2018-05-26T21:17:36.318Z,17.90
2018-05-26T21:20:04.484Z,17.80
2018-05-26T21:22:32.599Z,17.80
2018-05-26T21:25:00.731Z,17.70
2018-05-26T21:27:29.614Z,17.60
2018-05-26T21:29:58.559Z,17.60
2018-05-26T21:32:26.647Z,17.50
2018-05-26T21:34:55.357Z,17.50
2018-05-26T21:37:23.469Z,17.40
2018-05-26T21:39:51.663Z,17.40
2018-05-26T21:42:19.871Z,17.30
2018-05-26T21:44:48.059Z,17.30
2018-05-26T21:47:16.179Z,17.30
2018-05-26T21:49:44.307Z,17.20
2018-05-26T21:52:13.180Z,17.20
2018-05-26T21:54:41.283Z,17.10
2018-05-26T21:57:09.406Z,17.10
2018-05-26T21:59:37.622Z,17.10
2018-05-26T22:02:05.765Z,17.10
2018-05-26T22:04:33.912Z,17.00
2018-05-26T22:07:02.007Z,17.00
2018-05-26T22:09:30.139Z,17.00
2018-05-26T22:11:58.231Z,16.90
2018-05-26T22:14:26.409Z,16.90
2018-05-26T22:16:54.467Z,16.80
2018-05-26T22:19:22.645Z,16.80
2018-05-26T22:21:50.849Z,16.80
2018-05-26T22:24:19.095Z,16.70
2018-05-26T22:26:47.299Z,16.70
2018-05-26T22:29:15.483Z,16.70
2018-05-26T22:31:43.585Z,16.60
2018-05-26T22:34:11.700Z,16.60
2018-05-26T22:36:39.837Z,16.50
2018-05-26T22:39:07.954Z,16.50
2018-05-26T22:41:36.080Z,16.50
2018-05-26T22:44:04.242Z,16.40
2018-05-26T22:46:32.360Z,16.40
2018-05-26T22:49:00.516Z,16.40
2018-05-26T22:51:29.416Z,16.40
2018-05-26T22:53:57.519Z,16.30
2018-05-26T22:56:25.638Z,16.30
2018-05-26T22:58:53.738Z,16.30
2018-05-26T23:01:21.922Z,16.30
2018-05-26T23:03:50.090Z,16.20
2018-05-26T23:06:18.315Z,16.20
2018-05-26T23:08:46.551Z,16.20
2018-05-26T23:11:14.662Z,16.10
2018-05-26T23:13:42.766Z,16.10
2018-05-26T23:16:11.723Z,16.00
2018-05-26T23:18:40.589Z,16.00
2018-05-26T23:21:08.731Z,16.00
2018-05-26T23:23:36.831Z,15.90
2018-05-26T23:26:04.935Z,15.90
2018-05-26T23:28:33.033Z,15.90
2018-05-26T23:31:01.135Z,15.80
2018-05-26T23:33:29.231Z,15.80
2018-05-26T23:35:58.107Z,15.80
2018-05-26T23:38:26.209Z,15.80
2018-05-26T23:40:55.081Z,15.70
2018-05-26T23:43:23.194Z,15.70
2018-05-26T23:45:51.341Z,15.70
2018-05-26T23:48:19.495Z,15.60
2018-05-26T23:50:47.627Z,15.60
2018-05-26T23:53:15.737Z,15.60
2018-05-26T23:55:43.895Z,15.50
2018-05-26T23:58:11.989Z,15.50
